Ashford, West Virginia
Current Conditions -  °F | °C
As of 12:54 PM on Thursday 27 Nov 2014 (Local Time) from KCRW Reporting Station
Overcast Overcast  
Wind Chill: -4°   Ceiling: 2200
Heat Index:   Visibility: 8mi
Dew Point: -4°   Wind: 13mph
Humidity: 70%   Direction: 270°W
Pressure: 30.18"   Gusts: 20mph
Location:  38.18°N, 81.71°W
Report Text: KCRW 271754Z 27011G17KT 8SM BKN022 OVC034 01/M04 A3018 RMK AO2 SLP225 60000 T00111039 10017 20006 50008
Loading
Personal Weather Stations






























Interactive Weather Map New forecast layout! Learn more

10-Day Weather Forecast

Advertisements
Track Severe Weather on mobile